Time;durP1;ratioP1;P1;durP2;ratioP2;P2;SDS_P1;SDS_P2;PMS_P1;PMS_P2;Temp;Humidity;BMP_temperature;BMP_pressure;BME280_temperature;BME280_humidity;BME280_pressure;Samples;Min_cycle;Max_cycle;Signal;HPM_P1;HPM_P2
2024/01/29 00:01:50;;;;;;;59.50;27.60;;;;;;;0.13;88.13;102770.94;105967;1291;59666;-55
2024/01/29 00:04:36;;;;;;;54.10;27.20;;;;;;;0.11;88.23;102770.29;105962;1292;73954;-55
2024/01/29 00:07:22;;;;;;;47.90;25.50;;;;;;;0.08;87.77;102766.19;83902;1292;10002118;-55
2024/01/29 00:10:09;;;;;;;57.20;27.40;;;;;;;0.06;87.55;102762.71;105015;1291;67483;-51
2024/01/29 00:12:55;;;;;;;53.90;27.60;;;;;;;0.07;88.03;102755.45;105721;1292;72039;-54
2024/01/29 00:15:41;;;;;;;53.40;27.40;;;;;;;0.07;87.56;102754.45;104589;1291;60427;-52
2024/01/29 00:18:28;;;;;;;55.10;26.00;;;;;;;0.03;88.25;102755.71;104611;1291;60389;-54
2024/01/29 00:21:14;;;;;;;;;;;;;;;0.03;89.23;102756.40;104639;1292;74657;-53
2024/01/29 00:24:00;;;;;;;57.20;26.70;;;;;;;0.06;89.15;102755.55;104608;1292;67120;-53
2024/01/29 00:26:47;;;;;;;59.90;27.10;;;;;;;0.05;89.63;102751.11;104601;1294;71495;-53
2024/01/29 00:29:33;;;;;;;;;;;;;;;0.03;89.10;102757.40;104662;1294;60211;-54
2024/01/29 00:32:19;;;;;;;51.30;23.70;;;;;;;0.01;89.35;102759.02;104719;1291;60492;-54
2024/01/29 00:35:06;;;;;;;;;;;;;;;-0.01;89.85;102771.46;104687;1291;72468;-54
2024/01/29 00:37:52;;;;;;;51.50;24.70;;;;;;;-0.01;90.09;102769.94;105920;1292;69441;-55
2024/01/29 00:40:38;;;;;;;52.80;24.50;;;;;;;0.02;89.55;102773.66;105905;1292;71540;-53
2024/01/29 00:43:24;;;;;;;56.90;25.60;;;;;;;0.04;89.44;102764.77;105833;1292;58624;-54
2024/01/29 00:46:10;;;;;;;56.90;25.70;;;;;;;0.02;89.45;102763.64;105888;1292;58838;-54
2024/01/29 00:48:56;;;;;;;51.80;23.10;;;;;;;-0.00;89.41;102762.35;105859;1292;73336;-55
2024/01/29 00:51:42;;;;;;;50.70;24.10;;;;;;;-0.00;90.67;102762.00;105859;1294;67944;-55
2024/01/29 00:54:28;;;;;;;49.90;23.10;;;;;;;0.01;90.90;102756.45;105841;1291;72475;-55
2024/01/29 00:57:15;;;;;;;66.70;25.50;;;;;;;0.00;90.56;102753.55;105900;1291;58108;-55
2024/01/29 01:00:02;;;;;;;52.80;23.70;;;;;;;0.01;90.26;102750.52;105888;1293;59075;-53
2024/01/29 01:02:48;;;;;;;57.30;26.20;;;;;;;0.01;89.58;102744.58;105918;1292;74222;-54
2024/01/29 01:05:34;;;;;;;63.40;26.30;;;;;;;0.01;90.06;102745.59;105902;1294;67271;-55
2024/01/29 01:08:20;;;;;;;60.40;25.00;;;;;;;-0.01;88.36;102743.68;105767;1292;72607;-54
2024/01/29 01:11:07;;;;;;;47.30;23.50;;;;;;;-0.01;88.93;102741.47;105832;1292;207879;-55
2024/01/29 01:13:53;;;;;;;;;;;;;;;-0.01;88.59;102741.96;105948;1292;59778;-54
2024/01/29 01:16:39;;;;;;;53.60;23.80;;;;;;;-0.03;88.81;102739.95;105957;1289;72462;-53
2024/01/29 01:19:25;;;;;;;53.20;23.90;;;;;;;-0.07;88.11;102737.70;105949;1291;68151;-53
2024/01/29 01:22:13;;;;;;;55.20;24.20;;;;;;;-0.12;87.58;102738.59;105733;1295;317553;-54
2024/01/29 01:24:59;;;;;;;45.40;22.40;;;;;;;-0.19;86.92;102742.05;105966;1289;58691;-54
2024/01/29 01:27:45;;;;;;;47.80;22.80;;;;;;;-0.28;86.64;102741.14;105663;1289;59170;-53
2024/01/29 01:30:31;;;;;;;;;;;;;;;-0.34;87.17;102741.23;104687;1289;74085;-55
2024/01/29 01:33:17;;;;;;;53.40;23.90;;;;;;;-0.38;88.27;102739.02;104746;1289;67698;-54
2024/01/29 01:36:03;;;;;;;;;;;;;;;-0.39;88.74;102732.35;104697;1290;72272;-54
2024/01/29 01:38:51;;;;;;;44.20;22.70;;;;;;;-0.42;88.11;102726.19;104652;1289;60437;-52
2024/01/29 01:41:37;;;;;;;56.60;24.50;;;;;;;-0.45;87.93;102721.09;104791;1293;60380;-54
2024/01/29 01:44:23;;;;;;;;;;;;;;;-0.46;88.13;102721.05;104702;1289;72944;-51
2024/01/29 01:47:09;;;;;;;52.70;24.10;;;;;;;-0.46;88.68;102720.53;104706;1293;68047;-54
2024/01/29 01:49:56;;;;;;;;;;;;;;;-0.49;88.44;102711.86;104720;1289;71256;-54
2024/01/29 01:52:43;;;;;;;54.00;25.40;;;;;;;-0.51;88.90;102712.06;104746;1289;60382;-55
2024/01/29 01:55:29;;;;;;;59.40;25.20;;;;;;;-0.54;88.38;102708.70;104659;1291;60460;-53
2024/01/29 01:58:18;;;;;;;53.80;25.40;;;;;;;-0.55;88.40;102714.41;104722;1293;72405;-53
2024/01/29 02:01:04;;;;;;;54.60;25.80;;;;;;;-0.55;88.61;102712.34;82864;1292;10003275;-54
2024/01/29 02:03:50;;;;;;;;;;;;;;;-0.52;88.84;102714.74;104539;1294;73092;-54
2024/01/29 02:06:37;;;;;;;54.90;24.60;;;;;;;-0.48;88.70;102716.20;104591;1292;70586;-54
2024/01/29 02:09:24;;;;;;;55.20;26.10;;;;;;;-0.44;89.57;102711.50;104582;1292;73332;-55
2024/01/29 02:12:11;;;;;;;56.50;26.30;;;;;;;-0.39;89.27;102708.27;104746;1295;60553;-50
2024/01/29 02:14:57;;;;;;;;;;;;;;;-0.37;89.77;102707.05;104841;1289;60451;-53
2024/01/29 02:17:43;;;;;;;56.40;24.20;;;;;;;-0.37;89.69;102709.25;104755;1294;72409;-53
2024/01/29 02:20:29;;;;;;;;;;;;;;;-0.39;88.27;102706.21;104803;1289;68310;-53
2024/01/29 02:23:16;;;;;;;42.60;22.10;;;;;;;-0.40;89.87;102706.46;104706;1289;71245;-51
2024/01/29 02:26:02;;;;;;;;;;;;;;;-0.43;88.59;102702.27;104730;1289;60482;-53
2024/01/29 02:28:48;;;;;;;44.50;21.60;;;;;;;-0.50;87.47;102703.81;104691;1294;60407;-54
2024/01/29 02:31:35;;;;;;;48.50;21.90;;;;;;;-0.60;87.13;102704.25;104684;1289;72365;-55
2024/01/29 02:34:21;;;;;;;;;;;;;;;-0.74;86.67;102705.55;104689;1290;69973;-54
2024/01/29 02:37:07;;;;;;;43.20;21.30;;;;;;;-0.83;87.45;102705.81;104677;1289;74545;-53
2024/01/29 02:39:53;;;;;;;;;;;;;;;-0.87;87.86;102698.61;104707;1289;60794;-53
2024/01/29 02:42:40;;;;;;;45.60;21.50;;;;;;;-0.85;89.25;102697.27;104730;1294;60328;-54
2024/01/29 02:45:26;;;;;;;46.70;21.20;;;;;;;-0.81;89.05;102695.83;104708;1289;76583;-54
2024/01/29 02:48:12;;;;;;;;;;;;;;;-0.80;88.52;102693.65;104733;1289;68818;-54
2024/01/29 02:50:59;;;;;;;49.80;22.80;;;;;;;-0.76;89.73;102693.29;104772;1289;73319;-54
2024/01/29 02:53:45;;;;;;;;;;;;;;;-0.70;90.20;102691.10;104731;1289;60386;-54
2024/01/29 02:56:31;;;;;;;51.70;23.30;;;;;;;-0.65;89.67;102686.13;104669;1295;60542;-54
2024/01/29 02:59:17;;;;;;;53.30;24.90;;;;;;;-0.63;89.74;102683.70;104713;1289;73574;-54
2024/01/29 03:02:04;;;;;;;;;;;;;;;-0.62;88.95;102677.70;104767;1294;67973;-53
2024/01/29 03:04:51;;;;;;;51.90;23.70;;;;;;;-0.57;89.88;102676.48;104726;1289;71195;-54
2024/01/29 03:07:37;;;;;;;51.00;23.80;;;;;;;-0.56;89.98;102673.00;104731;1289;60551;-54
2024/01/29 03:10:23;;;;;;;;;;;;;;;-0.56;89.02;102668.62;104725;1289;60482;-51
2024/01/29 03:13:10;;;;;;;46.00;23.80;;;;;;;-0.55;89.83;102668.99;104667;1289;75236;-52
2024/01/29 03:15:56;;;;;;;;;;;;;;;-0.51;90.14;102667.65;104718;1293;67303;-54
2024/01/29 03:18:42;;;;;;;45.30;22.00;;;;;;;-0.50;89.81;102668.07;104763;1289;71212;-54
2024/01/29 03:21:28;;;;;;;;;;;;;;;-0.49;90.46;102668.96;104739;1289;60492;-55
2024/01/29 03:24:15;;;;;;;43.80;21.30;;;;;;;-0.50;90.61;102660.98;104778;1290;59301;-53
2024/01/29 03:27:01;;;;;;;51.50;23.70;;;;;;;-0.53;90.43;102659.09;104745;1289;73080;-54
2024/01/29 03:29:47;;;;;;;;;;;;;;;-0.53;90.68;102661.16;104706;1289;68499;-53
2024/01/29 03:32:34;;;;;;;44.10;22.60;;;;;;;-0.49;90.06;102658.34;104725;1289;74044;-54
2024/01/29 03:35:20;;;;;;;;;;;;;;;-0.51;89.77;102656.84;104761;1289;60485;-54
2024/01/29 03:38:06;;;;;;;44.50;22.20;;;;;;;-0.54;89.72;102652.45;104731;1289;60243;-54
2024/01/29 03:40:53;;;;;;;41.70;21.20;;;;;;;-0.55;89.70;102656.09;104704;1292;72454;-53
2024/01/29 03:43:49;;;;;;;41.70;21.20;;;;;;;-0.58;90.12;102654.93;97272;1290;10003280;-52
2024/01/29 03:46:45;;;;;;;41.40;20.60;;;;;;;-0.55;90.37;102651.52;104700;1289;73588;-54
2024/01/29 03:49:31;;;;;;;42.90;20.20;;;;;;;-0.57;89.63;102656.33;104739;1292;60447;-50
2024/01/29 03:52:17;;;;;;;;;;;;;;;-0.60;89.49;102652.08;104789;1289;59125;-54
2024/01/29 03:55:04;;;;;;;44.90;20.30;;;;;;;-0.63;89.45;102652.20;104835;1294;72454;-55
2024/01/29 03:57:50;;;;;;;47.50;20.80;;;;;;;-0.66;90.25;102648.34;106096;1289;68359;-55
2024/01/29 04:00:38;;;;;;;41.80;18.50;;;;;;;-0.63;89.47;102648.33;106060;1289;71405;-55
2024/01/29 04:03:25;;;;;;;39.30;20.10;;;;;;;-0.60;89.94;102646.98;106024;1289;58272;-54
2024/01/29 04:06:11;;;;;;;47.50;20.80;;;;;;;-0.60;89.42;102642.91;106070;1289;59081;-55
2024/01/29 04:08:57;;;;;;;33.40;19.00;;;;;;;-0.59;89.34;102648.05;105931;1288;73577;-54
2024/01/29 04:11:43;;;;;;;;;;;;;;;-0.60;89.80;102649.02;84003;1289;10003028;-55
2024/01/29 04:14:30;;;;;;;35.20;17.90;;;;;;;-0.61;89.64;102651.86;106109;1289;58991;-55
2024/01/29 04:17:16;;;;;;;43.00;19.60;;;;;;;-0.60;89.27;102659.19;104952;1289;71383;-55
2024/01/29 04:20:05;;;;;;;;;;;;;;;-0.60;89.18;102659.88;104844;1289;60318;-55
2024/01/29 04:22:51;;;;;;;36.40;18.00;;;;;;;-0.60;89.79;102660.71;104834;1288;60607;-53
2024/01/29 04:25:37;;;;;;;;;;;;;;;-0.62;89.11;102661.61;104970;1291;74095;-55
2024/01/29 04:28:23;;;;;;;35.40;18.00;;;;;;;-0.65;89.46;102661.96;104914;1292;67296;-51
2024/01/29 04:31:09;;;;;;;;;;;;;;;-0.68;89.29;102656.99;104823;1290;73330;-51
2024/01/29 04:33:56;;;;;;;37.30;18.70;;;;;;;-0.69;89.70;102657.60;104803;1289;60546;-54
2024/01/29 04:36:42;;;;;;;;;;;;;;;-0.75;90.04;102662.34;104822;1290;60437;-54
2024/01/29 04:39:28;;;;;;;41.20;19.00;;;;;;;-0.78;89.86;102659.11;104863;1291;75187;-55
2024/01/29 04:42:14;;;;;;;;;;;;;;;-0.82;88.57;102660.35;104876;1288;69277;-52
2024/01/29 04:45:00;;;;;;;41.60;18.70;;;;;;;-0.89;88.19;102664.30;104825;1289;71460;-51
2024/01/29 04:47:47;;;;;;;41.60;19.60;;;;;;;-0.96;88.46;102657.91;104913;1288;59266;-55
2024/01/29 04:50:33;;;;;;;;;;;;;;;-0.98;88.40;102649.81;104878;1289;60566;-54
2024/01/29 04:53:19;;;;;;;38.90;18.90;;;;;;;-1.01;88.96;102646.77;104826;1289;72440;-54
2024/01/29 04:56:05;;;;;;;;;;;;;;;-1.04;89.34;102644.73;104866;1289;67132;-54
2024/01/29 04:58:52;;;;;;;44.40;18.70;;;;;;;-1.05;90.76;102641.66;104857;1289;71199;-54
2024/01/29 05:01:38;;;;;;;;;;;;;;;-1.08;90.66;102639.63;104843;1289;60546;-51
2024/01/29 05:04:24;;;;;;;45.70;19.20;;;;;;;-1.07;90.67;102637.13;104856;1289;60365;-53
2024/01/29 05:07:10;;;;;;;;;;;;;;;-1.05;90.82;102637.27;104826;1294;74231;-52
2024/01/29 05:09:56;;;;;;;43.60;20.20;;;;;;;-1.05;91.40;102636.56;104852;1289;69123;-55
2024/01/29 05:12:43;;;;;;;;;;;;;;;-1.03;91.96;102639.39;104828;1289;71169;-55
2024/01/29 05:15:29;;;;;;;36.80;18.30;;;;;;;-1.01;91.44;102637.00;104771;1290;60322;-52
2024/01/29 05:18:15;;;;;;;;;;;;;;;-0.99;91.10;102633.20;104851;1292;60423;-51
2024/01/29 05:21:02;;;;;;;43.80;19.40;;;;;;;-1.01;90.12;102633.58;105001;1290;72555;-52
2024/01/29 05:23:48;;;;;;;42.20;20.20;;;;;;;-1.02;91.10;102641.30;102324;1289;5003403;-54
2024/01/29 05:26:34;;;;;;;;;;;;;;;-1.01;90.40;102641.36;104895;1289;74025;-55
2024/01/29 05:29:20;;;;;;;30.20;18.40;;;;;;;-1.02;90.16;102637.44;104959;1290;60472;-52
2024/01/29 05:32:06;;;;;;;;;;;;;;;-1.05;89.75;102641.33;105705;1291;266755;-55
2024/01/29 05:34:52;;;;;;;42.30;19.40;;;;;;;-1.06;89.63;102641.58;106225;1292;73717;-56
2024/01/29 05:37:38;;;;;;;44.90;20.60;;;;;;;-1.09;88.91;102635.17;105049;1290;67282;-53
2024/01/29 05:40:24;;;;;;;;;;;;;;;-1.09;88.82;102635.84;104974;1290;73990;-54
2024/01/29 05:43:10;;;;;;;40.80;20.20;;;;;;;-1.08;88.96;102636.72;104954;1289;61842;-56
2024/01/29 05:45:57;;;;;;;;;;;;;;;-1.11;88.71;102632.61;104982;1289;60356;-55
2024/01/29 05:48:43;;;;;;;39.10;20.10;;;;;;;-1.15;89.36;102630.36;104609;1293;309330;-55
2024/01/29 05:51:29;;;;;;;;;;;;;;;-1.12;89.41;102632.25;98449;1289;3205913;-55
2024/01/29 05:54:15;;;;;;;37.30;19.40;;;;;;;-1.10;89.58;102632.37;106182;1288;70081;-56
2024/01/29 05:57:01;;;;;;;38.90;20.70;;;;;;;-1.09;89.74;102628.85;106163;1289;58372;-55
2024/01/29 05:59:47;;;;;;;46.10;21.40;;;;;;;-1.07;90.85;102631.19;83191;1290;10003887;-55
2024/01/29 06:02:33;;;;;;;;;;;;;;;-1.03;91.20;102629.77;84063;1289;10002392;-54
2024/01/29 06:05:19;;;;;;;40.30;21.00;;;;;;;-0.98;90.23;102633.09;106227;1289;58415;-56
2024/01/29 06:08:05;;;;;;;42.20;20.90;;;;;;;-0.89;91.38;102632.14;106239;1288;60408;-56
2024/01/29 06:10:53;;;;;;;;;;;;;;;-0.84;90.47;102636.71;106237;1289;73847;-55
2024/01/29 06:13:39;;;;;;;38.70;20.40;;;;;;;-0.81;90.09;102641.48;106277;1290;68537;-56
2024/01/29 06:16:25;;;;;;;39.60;20.70;;;;;;;-0.79;90.90;102641.92;106184;1289;70698;-57
2024/01/29 06:19:18;;;;;;;32.70;20.20;;;;;;;-0.77;90.41;102642.02;106325;1288;58212;-56
2024/01/29 06:22:04;;;;;;;39.10;20.90;;;;;;;-0.75;90.35;102642.88;106161;1291;58791;-57
2024/01/29 06:24:50;;;;;;;38.50;21.30;;;;;;;-0.75;89.85;102644.40;106243;1290;72456;-56
2024/01/29 06:27:38;;;;;;;41.90;20.50;;;;;;;-0.76;90.00;102644.52;106270;1289;67669;-56
2024/01/29 06:30:24;;;;;;;39.80;20.70;;;;;;;-0.75;90.75;102641.86;106270;1289;71665;-56
2024/01/29 06:33:10;;;;;;;38.30;21.70;;;;;;;-0.74;90.89;102642.41;106231;1288;58173;-56
2024/01/29 06:35:59;;;;;;;41.40;22.00;;;;;;;-0.73;90.30;102641.98;106269;1289;60852;-56
2024/01/29 06:38:46;;;;;;;44.50;22.20;;;;;;;-0.73;89.67;102646.72;106224;1289;72877;-57
2024/01/29 06:41:32;;;;;;;39.90;21.30;;;;;;;-0.74;90.23;102646.98;106206;1288;67153;-57
2024/01/29 06:44:18;;;;;;;47.90;22.00;;;;;;;-0.75;90.59;102647.75;106225;1289;72361;-56
2024/01/29 06:47:04;;;;;;;43.90;22.60;;;;;;;-0.75;89.94;102649.46;106262;1289;58519;-56
2024/01/29 06:49:50;;;;;;;38.60;22.00;;;;;;;-0.73;90.52;102653.98;106225;1289;59857;-56
2024/01/29 06:52:35;;;;;;;38.50;21.40;;;;;;;-0.71;90.56;102651.25;106221;1289;73149;-54
2024/01/29 06:55:23;;;;;;;41.60;22.00;;;;;;;-0.72;90.27;102647.42;106226;1288;67407;-56
2024/01/29 06:58:09;;;;;;;44.20;21.40;;;;;;;-0.74;90.06;102645.96;106245;1289;70557;-56
2024/01/29 07:00:55;;;;;;;43.10;22.10;;;;;;;-0.76;90.23;102645.47;106216;1288;58043;-56
2024/01/29 07:03:41;;;;;;;48.20;22.90;;;;;;;-0.74;90.74;102647.83;106260;1290;59039;-57
2024/01/29 07:06:27;;;;;;;45.70;22.90;;;;;;;-0.74;91.09;102640.02;106195;1288;72939;-56
2024/01/29 07:09:12;;;;;;;47.50;23.10;;;;;;;-0.74;90.75;102632.77;106021;1289;68175;-57
2024/01/29 07:11:58;;;;;;;40.50;22.40;;;;;;;-0.74;90.28;102633.80;106071;1291;71968;-57
2024/01/29 07:14:44;;;;;;;42.10;23.80;;;;;;;-0.72;89.96;102629.51;102398;1289;5003695;-57
2024/01/29 07:17:30;;;;;;;42.70;22.40;;;;;;;-0.63;90.46;102627.30;106094;1289;58268;-56
2024/01/29 07:20:16;;;;;;;42.00;23.10;;;;;;;-0.45;90.51;102625.75;106073;1290;73777;-57
2024/01/29 07:23:02;;;;;;;39.40;22.60;;;;;;;-0.29;90.01;102625.14;106103;1291;67181;-57
2024/01/29 07:25:48;;;;;;;46.30;24.90;;;;;;;-0.25;89.73;102618.80;106066;1289;71162;-57
2024/01/29 07:28:34;;;;;;;42.20;24.30;;;;;;;-0.15;89.97;102618.16;106079;1289;58216;-56
2024/01/29 07:31:20;;;;;;;43.60;23.40;;;;;;;0.07;89.80;102616.08;106128;1289;60016;-57
2024/01/29 07:34:06;;;;;;;44.20;25.00;;;;;;;0.33;89.60;102614.20;106103;1291;72056;-57
2024/01/29 07:36:52;;;;;;;46.20;23.80;;;;;;;0.50;89.19;102609.79;106048;1290;67456;-58
2024/01/29 07:39:38;;;;;;;44.10;23.10;;;;;;;0.57;89.15;102614.40;106099;1291;71542;-56
2024/01/29 07:42:24;;;;;;;39.30;23.30;;;;;;;0.68;89.01;102609.75;106134;1289;58335;-56
2024/01/29 07:45:10;;;;;;;40.60;24.10;;;;;;;0.89;88.92;102615.52;106064;1291;60168;-57
2024/01/29 07:47:59;;;;;;;39.50;23.90;;;;;;;1.07;88.67;102621.06;106068;1291;72511;-55
2024/01/29 07:50:45;;;;;;;43.70;24.30;;;;;;;1.29;88.39;102619.05;106076;1289;67386;-56
2024/01/29 07:53:31;;;;;;;35.40;21.70;;;;;;;1.57;87.92;102620.70;106081;1290;72893;-56
2024/01/29 07:56:17;;;;;;;41.80;23.20;;;;;;;1.90;87.41;102615.28;106095;1290;58309;-55
2024/01/29 07:59:03;;;;;;;39.50;22.00;;;;;;;2.26;88.22;102616.21;106107;1289;58871;-54
2024/01/29 08:01:49;;;;;;;30.50;19.70;;;;;;;2.33;87.00;102617.27;106113;1291;73660;-56
2024/01/29 08:04:35;;;;;;;36.20;21.50;;;;;;;2.30;86.65;102618.98;106054;1291;68758;-56
2024/01/29 08:07:26;;;;;;;33.90;20.80;;;;;;;2.33;86.09;102615.73;105870;1291;396230;-57
2024/01/29 08:10:12;;;;;;;39.20;21.20;;;;;;;2.67;86.65;102616.52;106033;1290;58513;-56
2024/01/29 08:12:58;;;;;;;31.50;21.20;;;;;;;3.12;85.78;102612.53;106017;1289;59768;-56
2024/01/29 08:15:44;;;;;;;38.90;21.50;;;;;;;3.49;85.72;102615.92;106036;1290;72343;-56
2024/01/29 08:18:31;;;;;;;35.20;21.30;;;;;;;3.75;83.38;102612.09;102000;1291;5003551;-56
2024/01/29 08:21:17;;;;;;;39.40;22.80;;;;;;;3.88;85.65;102612.83;106039;1290;70417;-56
2024/01/29 08:24:04;;;;;;;37.80;20.20;;;;;;;3.70;85.09;102614.24;106022;1290;57948;-56
2024/01/29 08:26:50;;;;;;;40.60;21.90;;;;;;;3.36;84.51;102613.45;106030;1290;59365;-56
2024/01/29 08:29:36;;;;;;;38.30;20.80;;;;;;;3.16;86.50;102615.09;83950;1290;10002029;-54
2024/01/29 08:32:23;;;;;;;36.80;22.90;;;;;;;2.99;86.48;102622.16;106027;1290;59638;-56
2024/01/29 08:35:10;;;;;;;34.10;22.00;;;;;;;2.88;86.77;102620.44;106091;1289;74131;-55
2024/01/29 08:37:56;;;;;;;40.90;23.10;;;;;;;2.84;87.09;102620.58;106037;1290;68521;-56
2024/01/29 08:40:42;;;;;;;43.40;24.00;;;;;;;2.81;85.69;102621.95;105988;1291;72326;-54
2024/01/29 08:43:28;;;;;;;41.60;23.00;;;;;;;2.74;86.63;102625.70;106002;1291;58722;-56
2024/01/29 08:46:14;;;;;;;35.60;21.20;;;;;;;2.80;86.12;102624.80;106045;1290;60389;-56
2024/01/29 08:49:00;;;;;;;44.70;24.10;;;;;;;2.98;85.60;102622.61;106012;1290;73715;-56
2024/01/29 08:51:46;;;;;;;36.60;20.90;;;;;;;3.26;85.70;102619.96;106045;1291;66882;-55
2024/01/29 08:54:32;;;;;;;47.30;26.40;;;;;;;3.52;85.61;102619.27;106027;1291;71149;-56
2024/01/29 08:57:18;;;;;;;43.20;26.20;;;;;;;3.99;86.82;102616.38;106006;1289;58514;-56
2024/01/29 09:00:05;;;;;;;39.20;25.20;;;;;;;4.48;85.95;102618.79;106038;1290;59026;-55
2024/01/29 09:02:51;;;;;;;48.80;26.70;;;;;;;4.77;86.23;102617.87;106031;1290;72934;-56
2024/01/29 09:05:38;;;;;;;44.30;24.20;;;;;;;5.20;87.13;102619.38;106076;1290;67326;-56
2024/01/29 09:08:27;;;;;;;40.20;21.70;;;;;;;6.01;85.76;102612.59;106057;1291;71720;-56
2024/01/29 09:11:14;;;;;;;34.30;21.70;;;;;;;6.70;85.53;102614.02;106088;1290;58926;-57
2024/01/29 09:14:00;;;;;;;34.30;22.10;;;;;;;7.61;82.15;102615.48;106063;1291;59569;-56
2024/01/29 09:16:46;;;;;;;32.10;22.10;;;;;;;8.46;83.92;102610.02;106104;1289;72523;-57
2024/01/29 09:19:32;;;;;;;34.20;22.60;;;;;;;9.35;84.16;102606.69;106087;1289;68319;-56
2024/01/29 09:22:18;;;;;;;36.70;22.30;;;;;;;9.57;76.60;102610.59;106108;1291;71902;-54
2024/01/29 09:25:06;;;;;;;28.60;19.90;;;;;;;9.62;79.32;102611.55;106148;1288;58573;-54
2024/01/29 09:27:52;;;;;;;34.00;21.30;;;;;;;9.63;80.00;102608.98;106127;1291;59926;-53
2024/01/29 09:30:38;;;;;;;47.70;23.60;;;;;;;9.38;78.67;102608.64;106084;1289;73743;-51
2024/01/29 09:33:26;;;;;;;32.40;22.10;;;;;;;9.57;78.06;102610.40;106205;1291;68378;-54
2024/01/29 09:36:12;;;;;;;31.90;19.80;;;;;;;9.42;77.36;102610.45;106098;1290;71378;-54
2024/01/29 09:38:58;;;;;;;37.50;20.20;;;;;;;9.08;76.72;102615.59;105769;1292;205604;-54
2024/01/29 09:41:54;;;;;;;37.50;20.20;;;;;;;8.72;72.60;102615.13;98753;1289;10001617;-54
2024/01/29 09:44:53;;;;;;;31.20;19.70;;;;;;;8.62;73.82;102615.91;106081;1290;73085;-54
2024/01/29 09:47:40;;;;;;;34.70;21.30;;;;;;;8.49;73.84;102615.94;106055;1289;71375;-53
2024/01/29 09:50:28;;;;;;;33.60;20.40;;;;;;;8.57;75.27;102617.88;106072;1288;58136;-54
2024/01/29 09:53:19;;;;;;;38.80;22.10;;;;;;;8.76;74.71;102624.84;106128;1289;58915;-54
2024/01/29 09:56:08;;;;;;;33.20;20.40;;;;;;;8.73;72.68;102619.95;106078;1289;72683;-55
2024/01/29 09:58:55;;;;;;;32.10;19.50;;;;;;;8.75;73.89;102615.71;105930;1288;68870;-55
2024/01/29 10:01:42;;;;;;;34.50;21.50;;;;;;;8.90;74.50;102615.70;106034;1289;71336;-54
2024/01/29 10:04:28;;;;;;;35.50;23.20;;;;;;;9.19;74.69;102617.73;106047;1289;58258;-55
2024/01/29 10:07:14;;;;;;;33.70;22.20;;;;;;;9.40;72.46;102615.91;106085;1294;60210;-54
2024/01/29 10:10:01;;;;;;;;;;;;;;;9.70;75.84;102617.23;106161;1289;73573;-55
2024/01/29 10:12:46;;;;;;;26.50;18.00;;;;;;;10.08;75.88;102611.72;76439;1288;5006646;-54
2024/01/29 10:15:33;;;;;;;31.10;20.90;;;;;;;10.20;74.37;102603.84;105931;1289;58318;-55
2024/01/29 10:18:19;;;;;;;27.70;19.00;;;;;;;9.86;72.52;102601.33;106173;1289;60290;-54
2024/01/29 10:21:06;;;;;;;29.90;19.80;;;;;;;9.81;73.81;102598.15;105978;1290;72987;-54
2024/01/29 10:23:56;;;;;;;29.70;19.70;;;;;;;9.91;70.04;102595.72;106068;1289;67435;-55
2024/01/29 10:26:43;;;;;;;30.20;20.10;;;;;;;10.33;69.87;102588.58;106164;1289;70463;-55
2024/01/29 10:29:29;;;;;;;29.50;20.50;;;;;;;10.47;73.01;102585.67;106153;1288;58225;-54
2024/01/29 10:32:15;;;;;;;29.50;19.80;;;;;;;10.79;71.53;102580.11;106124;1289;59150;-55
2024/01/29 10:35:01;;;;;;;31.20;20.20;;;;;;;11.11;70.89;102575.38;106124;1289;74060;-55
2024/01/29 10:37:47;;;;;;;31.30;20.70;;;;;;;11.11;71.58;102571.75;106128;1289;68520;-53
2024/01/29 10:40:35;;;;;;;28.80;20.90;;;;;;;11.09;71.34;102568.09;106121;1288;72430;-56
2024/01/29 10:43:26;;;;;;;31.70;21.30;;;;;;;11.24;71.65;102564.50;106107;1290;58472;-56
2024/01/29 10:46:14;;;;;;;39.80;20.50;;;;;;;11.41;69.69;102565.90;106121;1289;58843;-56
2024/01/29 10:49:01;;;;;;;42.30;21.70;;;;;;;11.60;70.75;102554.70;106048;1294;71767;-55
2024/01/29 10:51:48;;;;;;;33.20;21.60;;;;;;;11.54;67.81;102548.95;106128;1289;69178;-55
2024/01/29 10:54:34;;;;;;;29.30;21.10;;;;;;;11.36;68.57;102543.58;106152;1289;71253;-55
2024/01/29 10:57:21;;;;;;;30.40;19.90;;;;;;;11.18;68.84;102545.95;106141;1289;58255;-55
2024/01/29 11:00:10;;;;;;;35.50;21.30;;;;;;;11.11;68.60;102545.52;106111;1289;59209;-55
2024/01/29 11:02:57;;;;;;;30.00;19.10;;;;;;;11.06;66.37;102543.02;106047;1291;72486;-54
2024/01/29 11:05:54;;;;;;;28.00;19.30;;;;;;;10.90;65.15;102532.49;106169;1289;67638;-55
2024/01/29 11:08:45;;;;;;;27.80;17.70;;;;;;;10.94;64.99;102527.35;106108;1290;72394;-54
2024/01/29 11:11:31;;;;;;;30.20;20.40;;;;;;;10.97;65.34;102519.79;106115;1293;58376;-55
2024/01/29 11:14:19;;;;;;;33.70;21.00;;;;;;;11.03;65.60;102516.07;106082;1290;58999;-53
2024/01/29 11:17:07;;;;;;;30.20;18.90;;;;;;;10.95;66.42;102509.08;106051;1290;73610;-54
2024/01/29 11:19:53;;;;;;;31.00;18.30;;;;;;;10.82;66.02;102505.13;106115;1289;67174;-54
2024/01/29 11:22:41;;;;;;;28.40;17.20;;;;;;;10.63;66.66;102502.10;106073;1292;70991;-54
2024/01/29 11:25:30;;;;;;;22.20;15.20;;;;;;;10.59;67.04;102498.42;106124;1289;58303;-54
2024/01/29 11:28:16;;;;;;;23.90;15.40;;;;;;;10.53;64.21;102501.96;106103;1289;58964;-54
2024/01/29 11:31:09;;;;;;;27.00;15.40;;;;;;;10.41;64.39;102507.66;106158;1289;73160;-54
2024/01/29 11:34:04;;;;;;;25.20;15.00;;;;;;;10.50;65.01;102506.56;106091;1294;67484;-54
2024/01/29 11:36:53;;;;;;;23.00;14.00;;;;;;;10.63;63.95;102497.96;106129;1288;71116;-54
2024/01/29 11:39:44;;;;;;;23.80;16.10;;;;;;;10.71;64.61;102497.55;106068;1291;59233;-54
2024/01/29 11:42:30;;;;;;;24.20;15.60;;;;;;;10.77;64.69;102500.06;106102;1291;59708;-54
2024/01/29 11:45:17;;;;;;;26.10;16.00;;;;;;;10.71;63.81;102503.94;106100;1290;73729;-54
2024/01/29 11:48:11;;;;;;;25.40;15.20;;;;;;;10.53;59.21;102511.61;106051;1289;67720;-54
2024/01/29 11:50:57;;;;;;;25.60;15.90;;;;;;;10.35;60.07;102510.33;106118;1290;72264;-54
2024/01/29 11:53:43;;;;;;;32.00;18.00;;;;;;;10.19;61.10;102505.40;105989;1291;57931;-55
2024/01/29 11:56:36;;;;;;;32.20;18.20;;;;;;;10.29;59.71;102500.08;103869;1290;10001376;-54
2024/01/29 11:59:45;;;;;;;23.30;17.10;;;;;;;10.41;61.13;102496.79;106040;1289;62887;-52
2024/01/29 12:02:31;;;;;;;29.80;17.00;;;;;;;10.53;60.80;102490.06;106027;1290;74067;-54
2024/01/29 12:05:18;;;;;;;28.20;16.80;;;;;;;10.64;60.88;102487.11;106070;1290;67469;-54
2024/01/29 12:08:15;;;;;;;26.80;17.00;;;;;;;10.74;63.25;102484.83;105887;1289;204851;-53
2024/01/29 12:11:02;;;;;;;31.60;17.70;;;;;;;10.81;61.37;102484.06;106129;1289;58124;-54
2024/01/29 12:13:49;;;;;;;26.00;16.80;;;;;;;10.73;58.10;102478.44;106161;1289;59653;-54
2024/01/29 12:16:35;;;;;;;24.80;16.50;;;;;;;10.57;59.14;102474.26;106131;1292;71876;-54
2024/01/29 12:19:21;;;;;;;34.00;18.10;;;;;;;10.43;58.13;102472.32;106122;1289;68444;-54
2024/01/29 12:22:12;;;;;;;26.50;18.70;;;;;;;10.34;60.04;102465.33;106125;1291;71973;-53
2024/01/29 12:25:00;;;;;;;26.90;17.80;;;;;;;10.21;60.63;102469.43;106171;1289;58416;-53
2024/01/29 12:27:46;;;;;;;28.00;18.50;;;;;;;10.03;60.69;102465.83;106116;1289;58846;-53
2024/01/29 12:30:32;;;;;;;29.20;17.50;;;;;;;9.98;59.87;102464.04;106116;1289;72378;-53
2024/01/29 12:33:18;;;;;;;29.20;16.70;;;;;;;9.70;58.41;102457.75;106185;1288;68236;-54
2024/01/29 12:36:13;;;;;;;31.60;18.90;;;;;;;9.38;58.27;102452.87;106121;1289;71236;-53
2024/01/29 12:38:59;;;;;;;30.90;18.10;;;;;;;9.16;59.88;102449.55;106154;1289;58238;-53
2024/01/29 12:41:45;;;;;;;27.90;18.40;;;;;;;9.05;59.16;102449.16;106196;1289;59536;-53
2024/01/29 12:44:30;;;;;;;29.70;18.10;;;;;;;8.83;58.53;102450.80;106191;1288;72810;-53